.
WxDataArchive / Data Records for 2006-02-22
2006-02-21 February 2006 2006-02-23

Data Records for Wednesday, 22 February 2006

Time	Temp	Chill	HIndex	Humid	Dewpt	 Wind 	HiWind	WindDir	Rain 	Barom 
-----	----	-----	------	-----	-----	------	------	-------	-----	----- 
00:00	33.2	33.2	33.2	62	21.6	1	4	248	0.00	29.916 
00:05	33.2	33.2	33.2	63	22.0	1	2	248	0.00	29.916 
00:10	33.1	33.1	33.1	63	21.9	1	4	248	0.00	29.916 
00:15	33.1	33.1	33.1	63	21.9	1	2	248	0.00	29.908 
00:20	32.9	32.9	32.9	63	21.7	1	2	248	0.00	29.908 
00:25	32.8	32.8	32.8	64	22.0	1	3	248	0.00	29.908 
00:30	32.8	32.8	32.8	64	22.0	1	3	248	0.00	29.910 
00:35	32.8	32.8	32.8	64	22.0	1	3	248	0.00	29.910 
00:40	32.8	32.8	32.8	64	22.0	1	4	248	0.00	29.910 
00:45	32.8	32.8	32.8	64	22.0	1	3	248	0.00	29.907 
00:50	32.7	32.7	32.7	64	21.9	1	3	248	0.00	29.907 
00:55	32.7	32.7	32.7	64	21.9	1	2	248	0.00	29.907 
01:00	32.7	32.7	32.7	64	21.9	1	3	248	0.00	29.906 
01:05	32.5	32.5	32.5	64	21.7	1	2	248	0.00	29.906 
01:10	32.5	32.5	32.5	65	22.1	1	2	248	0.00	29.906 
01:15	32.5	32.5	32.5	65	22.1	1	3	248	0.00	29.904 
01:20	32.4	32.4	32.4	65	22.0	1	3	248	0.00	29.904 
01:25	32.4	32.4	32.4	65	22.0	1	4	248	0.00	29.904 
01:30	32.4	32.4	32.4	65	22.0	1	4	248	0.00	29.909 
01:35	32.4	32.4	32.4	65	22.0	1	3	225	0.00	29.909 
01:40	32.4	32.4	32.4	65	22.0	1	3	248	0.00	29.909 
01:45	32.4	32.4	32.4	65	22.0	1	3	248	0.00	29.912 
01:50	32.4	32.4	32.4	65	22.0	1	2	248	0.00	29.912 
01:55	32.4	32.4	32.4	65	22.0	1	2	248	0.00	29.912 
02:00	32.4	32.4	32.4	65	22.0	1	2	248	0.00	29.913 
02:05	32.4	32.4	32.4	65	22.0	1	2	248	0.00	29.913 
02:10	32.4	32.4	32.4	65	22.0	0	3	248	0.00	29.913 
02:15	32.4	32.4	32.4	65	22.0	0	1	248	0.00	29.911 
02:20	32.2	32.2	32.2	65	21.8	0	1	248	0.00	29.911 
02:25	32.1	32.1	32.1	65	21.7	0	0	---	0.00	29.911 
02:30	31.9	31.9	31.9	66	21.9	0	0	---	0.00	29.916 
02:35	31.8	31.8	31.8	66	21.8	0	0	---	0.00	29.916 
02:40	31.6	31.6	31.6	67	21.9	1	2	248	0.00	29.916 
02:45	31.8	31.8	31.8	67	22.1	1	4	248	0.00	29.925 
02:50	31.9	31.9	31.9	67	22.2	1	3	248	0.00	29.925 
02:55	32.1	32.1	32.1	67	22.4	1	3	248	0.00	29.925 
03:00	32.1	32.1	32.1	67	22.4	1	3	248	0.00	29.919 
03:05	32.1	32.1	32.1	67	22.4	1	3	248	0.00	29.919 
03:10	32.1	32.1	32.1	67	22.4	1	3	248	0.00	29.919 
03:15	31.9	31.9	31.9	67	22.2	1	3	248	0.00	29.909 
03:20	31.8	31.8	31.8	67	22.1	1	2	248	0.00	29.909 
03:25	31.6	31.6	31.6	68	22.3	1	2	248	0.00	29.909 
03:30	31.3	31.3	31.3	68	22.0	0	1	248	0.00	29.909 
03:35	31.0	31.0	31.0	69	22.0	0	1	248	0.00	29.909 
03:40	30.6	30.6	30.6	70	22.0	0	1	248	0.00	29.909 
03:45	30.1	30.1	30.1	71	21.9	0	1	248	0.00	29.911 
03:50	30.1	30.1	30.1	72	22.2	0	2	248	0.00	29.911 
03:55	30.0	30.0	30.0	72	22.1	0	2	248	0.00	29.911 
04:00	30.1	30.1	30.1	72	22.2	0	2	248	0.00	29.898 
04:05	30.1	30.1	30.1	72	22.2	0	1	248	0.00	29.898 
04:10	30.1	30.1	30.1	72	22.2	0	1	248	0.00	29.898 
04:15	30.1	30.1	30.1	72	22.2	0	1	248	0.00	29.897 
04:20	30.0	30.0	30.0	73	22.4	0	2	248	0.00	29.897 
04:25	29.7	29.7	29.7	73	22.1	0	0	---	0.00	29.897 
04:30	29.5	29.5	29.5	73	21.9	0	0	---	0.00	29.889 
04:35	29.1	29.1	29.1	74	21.9	0	1	248	0.00	29.889 
04:40	28.7	28.7	28.7	74	21.5	0	0	---	0.00	29.889 
04:45	28.2	28.2	28.2	75	21.3	0	0	---	0.00	29.887 
04:50	27.8	27.8	27.8	77	21.5	0	0	---	0.00	29.887 
04:55	27.5	27.5	27.5	77	21.3	0	0	---	0.00	29.887 
05:00	27.2	27.2	27.2	77	21.0	0	0	---	0.00	29.887 
05:05	26.7	26.7	26.7	78	20.8	0	0	---	0.00	29.887 
05:10	26.4	26.4	26.4	79	20.8	0	0	---	0.00	29.887 
05:15	26.1	26.1	26.1	79	20.5	0	0	---	0.00	29.891 
05:20	25.8	25.8	25.8	80	20.5	0	0	---	0.00	29.891 
05:25	25.6	25.6	25.6	81	20.6	0	0	---	0.00	29.891 
05:30	25.4	25.4	25.4	81	20.4	0	1	248	0.00	29.886 
05:35	25.1	25.1	25.1	80	19.8	0	0	---	0.00	29.886 
05:40	24.8	24.8	24.8	81	19.8	0	0	---	0.00	29.886 
05:45	24.7	24.7	24.7	82	20.0	0	0	---	0.00	29.880 
05:50	24.5	24.5	24.5	82	19.8	0	0	---	0.00	29.880 
05:55	24.4	24.4	24.4	83	20.0	0	0	---	0.00	29.880 
06:00	24.1	24.1	24.1	83	19.7	0	0	---	0.00	29.884 
06:05	23.9	23.9	23.9	83	19.5	0	0	---	0.00	29.884 
06:10	23.8	23.8	23.8	84	19.7	0	1	248	0.00	29.884 
06:15	23.8	23.8	23.8	84	19.7	0	1	248	0.00	29.890 
06:20	23.6	23.6	23.6	84	19.5	0	0	---	0.00	29.890 
06:25	23.8	23.8	23.8	85	20.0	0	1	248	0.00	29.890 
06:30	24.1	24.1	24.1	86	20.5	0	0	---	0.00	29.887 
06:35	24.2	24.2	24.2	87	20.9	0	1	248	0.00	29.887 
06:40	24.5	24.5	24.5	87	21.2	0	0	---	0.00	29.887 
06:45	24.8	24.8	24.8	87	21.5	0	0	---	0.00	29.877 
06:50	24.8	24.8	24.8	86	21.2	0	0	---	0.00	29.877 
06:55	24.8	24.8	24.8	86	21.2	0	0	---	0.00	29.877 
07:00	24.5	24.5	24.5	85	20.6	0	0	---	0.00	29.876 
07:05	24.4	24.4	24.4	86	20.8	0	0	---	0.00	29.876 
07:10	24.2	24.2	24.2	86	20.6	0	0	---	0.00	29.876 
07:15	24.2	24.2	24.2	86	20.6	0	0	---	0.00	29.880 
07:20	24.2	24.2	24.2	87	20.9	0	1	248	0.00	29.880 
07:25	24.1	24.1	24.1	86	20.5	0	0	---	0.00	29.880 
07:30	24.1	24.1	24.1	87	20.8	0	0	---	0.00	29.883 
07:35	24.2	24.2	24.2	87	20.9	0	1	248	0.00	29.883 
07:40	24.2	24.2	24.2	87	20.9	0	0	---	0.00	29.883 
07:45	24.5	24.5	24.5	87	21.2	0	1	248	0.00	29.887 
07:50	24.7	24.7	24.7	88	21.7	0	1	248	0.00	29.887 
07:55	25.1	25.1	25.1	87	21.8	0	1	248	0.00	29.887 
08:00	25.4	25.4	25.4	87	22.1	0	0	---	0.00	29.886 
08:05	25.7	25.7	25.7	86	22.1	0	0	---	0.00	29.886 
08:10	26.1	26.1	26.1	85	22.2	0	0	---	0.00	29.886 
08:15	26.7	26.7	26.7	84	22.5	0	1	248	0.00	29.882 
08:20	27.5	27.5	27.5	81	22.4	0	2	248	0.00	29.882 
08:25	28.4	28.4	28.4	79	22.7	1	2	225	0.00	29.882 
08:30	29.3	29.3	29.3	78	23.3	0	2	68	0.00	29.877 
08:35	30.0	30.0	30.0	77	23.7	1	3	45	0.00	29.877 
08:40	30.4	30.4	30.4	76	23.8	1	3	45	0.00	29.877 
08:45	30.9	30.9	30.9	76	24.2	1	2	45	0.00	29.873 
08:50	31.3	31.3	31.3	75	24.3	1	3	45	0.00	29.873 
08:55	31.9	31.9	31.9	74	24.6	1	2	225	0.00	29.873 
09:00	32.5	32.5	32.5	73	24.8	0	2	225	0.00	29.875 
09:05	33.2	33.2	33.2	72	25.2	1	3	225	0.00	29.875 
09:10	33.8	33.8	33.8	71	25.4	1	3	248	0.00	29.875 
09:15	34.3	34.3	34.3	69	25.2	2	4	248	0.00	29.881 
09:20	34.4	34.4	34.4	69	25.3	2	6	248	0.00	29.881 
09:25	34.9	34.9	34.9	69	25.8	2	4	270	0.00	29.881 
09:30	35.0	35.0	35.0	68	25.5	3	7	248	0.00	29.878 
09:35	35.5	35.5	35.5	68	26.0	2	6	248	0.00	29.878 
09:40	36.0	36.0	36.0	67	26.1	3	7	248	0.00	29.878 
09:45	36.8	36.8	36.8	66	26.5	3	11	248	0.00	29.880 
09:50	36.9	32.8	36.9	65	26.3	5	11	248	0.00	29.880 
09:55	37.3	37.3	37.3	65	26.6	3	7	248	0.00	29.880 
10:00	37.9	37.9	37.9	63	26.4	3	9	248	0.00	29.881 
10:05	38.2	35.2	38.2	64	27.1	4	10	248	0.00	29.881 
10:10	38.8	38.8	38.8	63	27.3	3	6	248	0.00	29.881 
10:15	39.5	39.5	39.5	63	28.0	2	5	248	0.00	29.879 
10:20	39.9	37.2	39.9	63	28.3	4	6	248	0.00	29.879 
10:25	40.2	40.2	40.2	63	28.6	3	7	248	0.00	29.879 
10:30	40.2	37.5	40.2	64	29.0	4	11	248	0.00	29.879 
10:35	40.5	37.9	40.5	63	28.9	4	10	248	0.00	29.879 
10:40	40.5	37.1	40.5	64	29.3	5	15	270	0.00	29.879 
10:45	40.8	38.2	40.8	64	29.6	4	10	248	0.00	29.879 
10:50	41.1	37.8	41.1	64	29.9	5	9	248	0.00	29.879 
10:55	41.5	39.1	41.5	66	31.0	4	10	248	0.00	29.879 
11:00	42.1	39.7	42.1	62	30.0	4	10	248	0.00	29.877 
11:05	42.3	42.3	42.3	63	30.6	3	8	248	0.00	29.877 
11:10	42.8	40.6	42.8	62	30.7	4	10	248	0.00	29.877 
11:15	42.8	40.6	42.8	62	30.7	4	7	248	0.00	29.879 
11:20	42.9	42.9	42.9	62	30.8	3	7	270	0.00	29.879 
11:25	43.3	43.3	43.3	62	31.2	3	6	248	0.00	29.879 
11:30	43.5	41.4	43.5	62	31.4	4	11	248	0.00	29.878 
11:35	43.5	41.4	43.5	62	31.4	4	10	248	0.00	29.878 
11:40	44.1	42.1	44.1	61	31.5	4	14	270	0.00	29.878 
11:45	43.8	40.9	43.8	62	31.6	5	11	248	0.00	29.877 
11:50	43.6	40.0	43.6	62	31.5	6	13	270	0.00	29.877 
11:55	43.8	39.7	43.8	63	32.0	7	14	270	0.00	29.877 
12:00	43.9	39.8	43.9	62	31.7	7	13	248	0.00	29.879 
12:05	43.8	40.3	43.8	63	32.0	6	12	248	0.00	29.879 
12:10	44.2	42.2	44.2	63	32.4	4	9	248	0.00	29.879 
12:15	44.1	40.6	44.1	62	31.9	6	11	248	0.00	29.875 
12:20	43.6	40.0	43.6	63	31.8	6	13	248	0.00	29.875 
12:25	43.8	40.9	43.8	63	32.0	5	13	248	0.00	29.875 
12:30	43.8	41.7	43.8	63	32.0	4	12	248	0.00	29.872 
12:35	44.5	42.5	44.5	63	32.7	4	10	248	0.00	29.872 
12:40	45.2	42.6	45.2	61	32.6	5	9	248	0.00	29.872 
12:45	45.7	43.2	45.7	61	33.0	5	10	270	0.00	29.859 
12:50	45.7	45.7	45.7	60	32.6	3	9	270	0.00	29.859 
12:55	44.9	43.0	44.9	60	31.9	4	8	270	0.00	29.859 
13:00	44.3	44.3	44.3	61	31.7	3	7	248	0.00	29.857 
13:05	43.9	41.1	43.9	62	31.7	5	12	248	0.00	29.857 
13:10	44.3	42.3	44.3	63	32.5	4	10	248	0.00	29.857 
13:15	45.1	43.2	45.1	62	32.9	4	10	248	0.00	29.857 
13:20	45.8	45.8	45.8	60	32.7	3	7	270	0.00	29.857 
13:25	46.0	44.2	46.0	61	33.3	4	9	270	0.00	29.857 
13:30	46.1	44.4	46.1	60	33.0	4	11	270	0.00	29.847 
13:35	46.5	46.5	46.5	60	33.4	3	6	248	0.00	29.847 
13:40	47.0	47.0	47.0	58	33.0	3	9	248	0.00	29.847 
13:45	46.7	46.7	46.7	58	32.7	3	6	248	0.00	29.843 
13:50	46.1	43.6	46.1	57	31.7	5	12	248	0.00	29.843 
13:55	46.1	46.1	46.1	58	32.2	3	5	270	0.00	29.843 
14:00	46.2	44.5	46.2	57	31.8	4	12	248	0.00	29.835 
14:05	46.2	43.8	46.2	57	31.8	5	12	248	0.00	29.835 
14:10	46.4	44.0	46.4	56	31.6	5	13	248	0.00	29.835 
14:15	46.7	45.1	46.7	57	32.3	4	9	225	0.00	29.827 
14:20	47.1	44.8	47.1	56	32.2	5	14	270	0.00	29.827 
14:25	46.8	44.5	46.8	56	31.9	5	14	270	0.00	29.827 
14:30	46.8	43.9	46.8	55	31.5	6	13	270	0.00	29.827 
14:35	46.8	44.5	46.8	55	31.5	5	11	248	0.00	29.827 
14:40	47.3	45.0	47.3	54	31.5	5	12	248	0.00	29.827 
14:45	47.3	45.8	47.3	53	31.0	4	10	248	0.00	29.816 
14:50	47.3	45.8	47.3	53	31.0	4	10	248	0.00	29.816 
14:55	47.4	47.4	47.4	52	30.7	3	8	248	0.00	29.816 
15:00	47.4	45.9	47.4	50	29.7	4	11	248	0.00	29.810 
15:05	47.6	47.6	47.6	52	30.9	3	6	248	0.00	29.810 
15:10	47.4	45.9	47.4	49	29.2	4	9	248	0.00	29.810 
15:15	47.3	45.8	47.3	51	30.1	4	10	248	0.00	29.807 
15:20	47.3	45.8	47.3	50	29.6	4	7	248	0.00	29.807 
15:25	47.3	47.3	47.3	51	30.1	3	7	248	0.00	29.807 
15:30	48.0	48.0	48.0	51	30.7	3	6	270	0.00	29.806 
15:35	48.5	48.5	48.5	51	31.2	3	6	248	0.00	29.806 
15:40	48.5	48.5	48.5	51	31.2	3	7	248	0.00	29.806 
15:45	48.3	46.9	48.3	50	30.5	4	10	248	0.00	29.805 
15:50	48.0	46.6	48.0	49	29.8	4	10	248	0.00	29.805 
15:55	48.0	48.0	48.0	50	30.3	3	6	248	0.00	29.805 
16:00	48.0	48.0	48.0	52	31.2	3	7	248	0.00	29.799 
16:05	47.7	46.2	47.7	52	30.9	4	10	248	0.00	29.799 
16:10	47.4	45.9	47.4	53	31.1	4	12	248	0.00	29.799 
16:15	47.4	47.4	47.4	52	30.7	3	6	270	0.00	29.800 
16:20	47.4	45.9	47.4	54	31.6	4	9	248	0.00	29.800 
16:25	47.3	47.3	47.3	53	31.0	3	7	248	0.00	29.800 
16:30	47.0	47.0	47.0	53	30.8	3	6	248	0.00	29.802 
16:35	46.8	46.8	46.8	52	30.1	3	8	248	0.00	29.802 
16:40	46.7	46.7	46.7	52	30.0	3	6	248	0.00	29.802 
16:45	46.8	46.8	46.8	53	30.6	3	6	248	0.00	29.800 
16:50	46.5	46.5	46.5	54	30.8	1	5	248	0.00	29.800 
16:55	46.5	46.5	46.5	53	30.3	3	6	248	0.00	29.800 
17:00	46.2	44.5	46.2	54	30.5	4	10	248	0.00	29.800 
17:05	46.2	46.2	46.2	54	30.5	3	6	248	0.00	29.800 
17:10	46.2	46.2	46.2	55	30.9	3	5	248	0.00	29.800 
17:15	46.2	46.2	46.2	55	30.9	2	6	248	0.00	29.802 
17:20	45.8	45.8	45.8	58	31.9	1	5	248	0.00	29.802 
17:25	45.4	45.4	45.4	62	33.2	1	6	248	0.00	29.802 
17:30	44.6	44.6	44.6	63	32.8	2	4	315	0.00	29.803 
17:35	44.3	44.3	44.3	65	33.3	1	2	315	0.00	29.803 
17:40	43.9	43.9	43.9	66	33.3	1	3	112	0.00	29.803 
17:45	43.8	43.8	43.8	67	33.6	1	4	292	0.00	29.807 
17:50	43.5	43.5	43.5	67	33.3	1	3	248	0.00	29.807 
17:55	43.3	43.3	43.3	67	33.1	2	5	248	0.00	29.807 
18:00	43.2	43.2	43.2	68	33.4	2	6	248	0.00	29.818 
18:05	43.1	43.1	43.1	68	33.3	2	4	248	0.00	29.818 
18:10	42.9	42.9	42.9	68	33.1	2	4	248	0.00	29.818 
18:15	42.6	42.6	42.6	68	32.8	2	4	248	0.00	29.819 
18:20	42.5	42.5	42.5	69	33.1	2	4	248	0.00	29.819 
18:25	42.2	42.2	42.2	69	32.8	1	2	248	0.00	29.819 
18:30	41.8	41.8	41.8	70	32.7	1	3	248	0.00	29.825 
18:35	41.3	41.3	41.3	71	32.6	0	3	22	0.00	29.825 
18:40	40.8	40.8	40.8	72	32.5	0	2	0	0.00	29.825 
18:45	40.3	40.3	40.3	73	32.3	1	2	0	0.00	29.832 
18:50	40.1	40.1	40.1	74	32.5	1	5	292	0.00	29.832 
18:55	40.1	40.1	40.1	74	32.5	1	3	225	0.00	29.832 
19:00	39.9	39.9	39.9	75	32.6	0	3	248	0.00	29.839 
19:05	39.6	39.6	39.6	75	32.3	0	2	248	0.00	29.839 
19:10	39.3	39.3	39.3	76	32.4	1	3	248	0.00	29.839 
19:15	39.2	39.2	39.2	76	32.3	0	2	248	0.00	29.851 
19:20	38.9	38.9	38.9	77	32.3	0	2	248	0.00	29.851 
19:25	38.6	38.6	38.6	77	32.0	0	2	248	0.00	29.851 
19:30	38.3	38.3	38.3	78	32.1	0	2	248	0.00	29.850 
19:35	37.9	37.9	37.9	79	32.0	0	2	248	0.00	29.850 
19:40	37.6	37.6	37.6	79	31.7	0	1	248	0.00	29.850 
19:45	37.3	37.3	37.3	80	31.7	0	2	248	0.00	29.855 
19:50	37.2	37.2	37.2	80	31.6	0	1	248	0.00	29.855 
19:55	37.0	37.0	37.0	80	31.4	0	1	248	0.00	29.855 
20:00	36.9	36.9	36.9	81	31.6	0	2	248	0.00	29.854 
20:05	36.8	36.8	36.8	81	31.5	0	2	248	0.00	29.854 
20:10	36.8	36.8	36.8	81	31.5	0	2	248	0.00	29.854 
20:15	36.6	36.6	36.6	81	31.3	0	1	248	0.00	29.848 
20:20	36.5	36.5	36.5	82	31.5	1	2	315	0.00	29.848 
20:25	36.5	36.5	36.5	82	31.5	0	3	315	0.00	29.848 
20:30	36.5	36.5	36.5	82	31.5	1	5	248	0.00	29.845 
20:35	36.3	36.3	36.3	82	31.3	0	2	225	0.00	29.845 
20:40	36.3	36.3	36.3	82	31.3	0	3	225	0.00	29.845 
20:45	36.2	36.2	36.2	82	31.2	0	2	225	0.00	29.848 
20:50	36.0	36.0	36.0	82	31.0	0	2	225	0.00	29.848 
20:55	36.0	36.0	36.0	83	31.3	1	3	248	0.00	29.848 
21:00	36.2	36.2	36.2	83	31.5	0	4	248	0.00	29.848 
21:05	36.2	36.2	36.2	83	31.5	0	2	248	0.00	29.848 
21:10	36.2	36.2	36.2	83	31.5	0	3	248	0.00	29.848 
21:15	36.3	36.3	36.3	83	31.6	1	4	248	0.00	29.845 
21:20	36.6	36.6	36.6	83	31.9	1	5	248	0.00	29.845 
21:25	36.9	36.9	36.9	82	31.9	1	4	248	0.00	29.845 
21:30	37.0	37.0	37.0	82	32.0	1	5	248	0.00	29.845 
21:35	37.2	37.2	37.2	81	31.9	1	5	248	0.00	29.845 
21:40	37.2	37.2	37.2	81	31.9	2	4	248	0.00	29.845 
21:45	37.3	37.3	37.3	82	32.3	2	4	248	0.00	29.845 
21:50	37.3	37.3	37.3	82	32.3	2	6	248	0.00	29.845 
21:55	37.5	37.5	37.5	81	32.2	2	5	248	0.00	29.845 
22:00	37.6	37.6	37.6	81	32.3	2	5	248	0.00	29.845 
22:05	37.8	37.8	37.8	81	32.5	2	7	248	0.00	29.845 
22:10	37.8	37.8	37.8	81	32.5	3	6	248	0.00	29.845 
22:15	37.9	37.9	37.9	81	32.6	3	6	248	0.00	29.845 
22:20	37.9	37.9	37.9	81	32.6	3	6	248	0.00	29.845 
22:25	37.9	37.9	37.9	81	32.6	3	6	248	0.00	29.845 
22:30	37.9	37.9	37.9	81	32.6	3	6	248	0.00	29.845 
22:35	37.8	37.8	37.8	81	32.5	3	7	248	0.00	29.845 
22:40	37.6	37.6	37.6	81	32.3	2	4	248	0.00	29.845 
22:45	37.5	37.5	37.5	81	32.2	2	5	248	0.00	29.851 
22:50	37.3	37.3	37.3	81	32.0	2	5	248	0.00	29.851 
22:55	37.2	37.2	37.2	81	31.9	2	5	248	0.00	29.851 
23:00	37.2	37.2	37.2	82	32.2	3	6	248	0.00	29.850 
23:05	37.2	37.2	37.2	81	31.9	3	5	248	0.00	29.850 
23:10	37.0	37.0	37.0	81	31.7	2	4	248	0.00	29.850 
23:15	37.0	37.0	37.0	81	31.7	2	5	248	0.00	29.852 
23:20	37.0	37.0	37.0	81	31.7	2	5	248	0.00	29.852 
23:25	37.0	37.0	37.0	81	31.7	2	5	248	0.00	29.852 
23:30	37.0	37.0	37.0	81	31.7	2	4	248	0.00	29.856 
23:35	36.9	36.9	36.9	81	31.6	3	5	248	0.00	29.856 
23:40	36.9	36.9	36.9	81	31.6	2	7	248	0.00	29.856 
23:45	36.8	36.8	36.8	81	31.5	2	4	248	0.00	29.858 
23:50	36.8	36.8	36.8	81	31.5	2	5	248	0.00	29.858 
23:55	36.6	36.6	36.6	81	31.3	2	4	248	0.00	29.858 

CoCoRaHS
IN-AL-39
A2 Web Hosting
Creative Commons License
GoDaddy
Look for:

loaded 2017-12-13 15:49:07 • last modified 2010-11-18 10:43:29
Privacy PolicyDisclaimer
• wx.awcolley.com is powered by PmWiki v.2002016 •
• all content (unless otherwise noted) © 2017 A W Colley